Cleveland, North Carolina
Current Conditions -  °F | °C
As of 10:15 AM on Thursday 18 Dec 2014 (Local Time) from KRUQ Reporting Station
Scattered Clouds Scattered Clouds  
Wind Chill: 40°   Ceiling: Unl
Heat Index: 43°   Visibility: 10mi
Dew Point: 26°   Wind: 5mph
Humidity: 51%   Direction: 10°N
Pressure: 30.18"   Gusts: NA
Location:  35.73°N, 80.68°W
Report Text: KRUQ 181515Z AUTO 01004KT 10SM SCT110 06/M03 A3018 RMK AO2 T00611034
Loading
Personal Weather Stations






























Interactive Weather Map New forecast layout! Learn more

10-Day Weather Forecast

Advertisements
Track Severe Weather on mobile